Time,TemperatureC,DewpointC,PressurehPa,WindDirection,WindDirectionDegrees,WindSpeedKMH,WindSpeedGustKMH,Humidity,HourlyPrecipMM,Conditions,Clouds,dailyrainMM,SolarRadiationWatts/m^2,UVIndex,SoftwareType,DateUTC
2026-05-04 00:03:48,12.1,12,1000.8,ESE,112,0,0,69.1,0.0,,,0.0,2,0,n/a,2026-05-03T22:03:48Z
2026-05-04 00:09:48,12,12.1,1000.8,ESE,112,0,0,69.6,0.0,,,0.0,2,0,n/a,2026-05-03T22:09:48Z
2026-05-04 00:12:48,11.8,12.1,1001.0,ENE,67,0,0,70.1,0.0,,,0.0,2,0,n/a,2026-05-03T22:12:48Z
2026-05-04 00:18:48,11.8,12,1001.0,East,90,0,0,70.5,0.0,,,0.0,2,0,n/a,2026-05-03T22:18:48Z
2026-05-04 00:24:48,11.7,12.1,1001.3,East,90,0,0,71.3,0.0,,,0.0,0,0,n/a,2026-05-03T22:24:48Z
2026-05-04 00:27:49,11.7,12,1001.0,East,90,0,0,71.3,0.0,,,0.0,0,0,n/a,2026-05-03T22:27:49Z
2026-05-04 00:33:48,11.6,11.9,1001.3,East,90,0,0,71.1,0.0,,,0.0,0,0,n/a,2026-05-03T22:33:48Z
2026-05-04 00:39:48,11.7,11.9,1001.3,ESE,112,0,0,71.3,0.0,,,0.0,2,0,n/a,2026-05-03T22:39:48Z
2026-05-04 00:42:45,11.8,11.8,1001.3,North,0,0,0,71.3,0.0,,,0.0,0,0,n/a,2026-05-03T22:42:45Z
2026-05-04 00:48:49,11.7,11.9,1001.3,SW,225,0,0,71.4,0.0,,,0.0,0,0,n/a,2026-05-03T22:48:49Z
2026-05-04 00:54:49,11.6,11.8,1001.0,East,90,0,0,71.2,0.0,,,0.0,2,0,n/a,2026-05-03T22:54:49Z
2026-05-04 00:57:49,11.8,11.9,1000.8,ENE,67,0,0,71.4,0.0,,,0.0,2,0,n/a,2026-05-03T22:57:49Z
2026-05-04 01:03:48,11.8,11.8,1000.8,South,180,0,0,71.8,0.0,,,0.0,2,0,n/a,2026-05-03T23:03:48Z
2026-05-04 01:09:49,11.9,11.8,1000.8,SE,135,0,0,71.9,0.0,,,0.0,2,0,n/a,2026-05-03T23:09:49Z
2026-05-04 01:12:48,11.8,12,1000.8,NE,45,0,0,72.7,0.0,,,0.0,0,0,n/a,2026-05-03T23:12:48Z
2026-05-04 01:18:45,11.8,11.8,1000.8,North,0,0,0,72.2,0.0,,,0.0,2,0,n/a,2026-05-03T23:18:45Z
2026-05-04 01:24:49,11.9,11.9,1000.8,NW,315,0,0,72.5,0.0,,,0.0,2,0,n/a,2026-05-03T23:24:49Z
2026-05-04 01:27:48,12.1,11.9,1001.0,SW,225,0,0,72.6,0.0,,,0.0,0,0,n/a,2026-05-03T23:27:48Z
2026-05-04 01:33:48,12.2,11.9,1001.3,SSW,202,0,0,72.2,0.0,,,0.0,2,0,n/a,2026-05-03T23:33:48Z
2026-05-04 01:39:45,12.4,11.9,1001.5,SW,225,0,0,71.8,0.0,,,0.0,0,0,n/a,2026-05-03T23:39:45Z
2026-05-04 01:42:48,12.3,11.7,1001.3,NE,45,0,0,71.4,0.0,,,0.0,2,0,n/a,2026-05-03T23:42:48Z
2026-05-04 01:48:49,12,11.8,1001.3,NE,45,0,0,71.5,0.0,,,0.0,2,0,n/a,2026-05-03T23:48:49Z
2026-05-04 01:54:49,11.9,11.7,1001.3,ENE,67,0,0,71.8,0.0,,,0.0,2,0,n/a,2026-05-03T23:54:49Z
2026-05-04 01:57:48,12,11.7,1001.3,ESE,112,0,0,71.9,0.0,,,0.0,2,0,n/a,2026-05-03T23:57:48Z
2026-05-04 02:03:49,11.9,11.7,1001.5,South,180,0,0,72.3,0.0,,,0.0,0,0,n/a,2026-05-04T00:03:49Z
2026-05-04 02:09:49,11.8,11.7,1001.5,East,90,0,0,72.4,0.0,,,0.0,0,0,n/a,2026-05-04T00:09:49Z
2026-05-04 02:12:49,11.7,11.6,1001.5,East,90,0,0,72.7,0.0,,,0.0,2,0,n/a,2026-05-04T00:12:49Z
2026-05-04 02:18:48,11.6,11.7,1001.8,SE,135,0,0,73,0.0,,,0.0,2,0,n/a,2026-05-04T00:18:48Z
2026-05-04 02:24:49,11.5,11.7,1001.8,ESE,112,0,0,73.4,0.0,,,0.0,0,0,n/a,2026-05-04T00:24:49Z
2026-05-04 02:27:48,11.5,11.7,1001.5,ESE,112,0,0,73.8,0.0,,,0.0,2,0,n/a,2026-05-04T00:27:48Z
2026-05-04 02:33:48,11.5,11.7,1001.8,SE,135,0,0,73.8,0.0,,,0.0,2,0,n/a,2026-05-04T00:33:48Z
2026-05-04 02:39:48,11.3,11.6,1001.5,ENE,67,0,0,73.8,0.0,,,0.0,0,0,n/a,2026-05-04T00:39:48Z
2026-05-04 02:42:45,11.3,11.6,1001.5,ENE,67,0,0,73.8,0.0,,,0.0,0,0,n/a,2026-05-04T00:42:45Z
2026-05-04 02:48:49,11.3,11.6,1001.5,ENE,67,0,0,73.9,0.0,,,0.0,2,0,n/a,2026-05-04T00:48:49Z
2026-05-04 02:54:48,11.3,11.6,1001.5,ENE,67,0,0,74,0.0,,,0.0,2,0,n/a,2026-05-04T00:54:48Z
2026-05-04 02:57:48,11.4,11.6,1001.5,East,90,0,0,74.2,0.0,,,0.0,2,0,n/a,2026-05-04T00:57:48Z
2026-05-04 03:00:48,11.3,11.5,1001.5,ESE,112,0,0,74,0.0,,,0.0,0,0,n/a,2026-05-04T01:00:48Z
2026-05-04 03:09:48,11.3,11.4,1001.5,North,0,0,0,73.5,0.0,,,0.0,0,0,n/a,2026-05-04T01:09:48Z
2026-05-04 03:12:48,11.3,11.3,1001.5,East,90,0,0,73.4,0.0,,,0.0,2,0,n/a,2026-05-04T01:12:48Z
2026-05-04 03:18:48,11.2,11.3,1001.5,East,90,0,0,73.6,0.0,,,0.0,0,0,n/a,2026-05-04T01:18:48Z
2026-05-04 03:24:48,11.1,11.2,1001.3,East,90,0,0,73.8,0.0,,,0.0,0,0,n/a,2026-05-04T01:24:48Z
2026-05-04 03:27:48,11,11.3,1001.3,East,90,0,0,74.1,0.0,,,0.0,2,0,n/a,2026-05-04T01:27:48Z
2026-05-04 03:33:49,11,11.2,1001.3,East,90,0,0,74.2,0.0,,,0.0,2,0,n/a,2026-05-04T01:33:49Z
2026-05-04 03:39:48,11,11.3,1001.3,ESE,112,0,0,74.5,0.0,,,0.0,2,0,n/a,2026-05-04T01:39:48Z
2026-05-04 03:42:45,10.9,11.2,1001.3,ESE,112,0,0,74.4,0.0,,,0.0,0,0,n/a,2026-05-04T01:42:45Z
2026-05-04 03:48:48,10.9,11.3,1001.3,ESE,112,0,0,74.8,0.0,,,0.0,2,0,n/a,2026-05-04T01:48:48Z
2026-05-04 03:54:48,10.8,11.3,1001.3,ESE,112,0,0,75.5,0.0,,,0.0,2,0,n/a,2026-05-04T01:54:48Z
2026-05-04 03:57:48,10.8,11.3,1001.3,East,90,0,0,75.6,0.0,,,0.0,0,0,n/a,2026-05-04T01:57:48Z
2026-05-04 04:00:48,10.8,11.3,1001.3,East,90,0,0,75.5,0.0,,,0.0,2,0,n/a,2026-05-04T02:00:48Z
2026-05-04 04:09:45,10.7,11.2,1001.3,North,0,0,0,75.7,0.0,,,0.0,2,0,n/a,2026-05-04T02:09:45Z
2026-05-04 04:12:49,10.7,11.2,1001.3,East,90,0,0,76,0.0,,,0.0,0,0,n/a,2026-05-04T02:12:49Z
2026-05-04 04:18:48,10.7,11.3,1001.3,East,90,0,0,76.3,0.0,,,0.0,0,0,n/a,2026-05-04T02:18:48Z
2026-05-04 04:24:45,10.7,11.3,1001.3,East,90,0,0,76.4,0.0,,,0.0,0,0,n/a,2026-05-04T02:24:45Z
2026-05-04 04:27:49,10.8,11.4,1001.3,North,0,0,0,76.5,0.0,,,0.0,0,0,n/a,2026-05-04T02:27:49Z
2026-05-04 04:33:48,10.8,11.3,1001.3,East,90,0,0,76.4,0.0,,,0.0,2,0,n/a,2026-05-04T02:33:48Z
2026-05-04 04:39:49,10.8,11.2,1001.3,East,90,0,0,76.3,0.0,,,0.0,2,0,n/a,2026-05-04T02:39:49Z
2026-05-04 04:42:49,10.8,11.3,1001.3,East,90,0,0,76.7,0.0,,,0.0,0,0,n/a,2026-05-04T02:42:49Z
2026-05-04 04:48:48,10.7,11.3,1001.3,East,90,0,0,77.1,0.0,,,0.0,2,0,n/a,2026-05-04T02:48:48Z
2026-05-04 04:54:49,10.7,11.4,1001.3,East,90,0,0,77.5,0.0,,,0.0,2,0,n/a,2026-05-04T02:54:49Z
2026-05-04 04:57:45,10.8,11.3,1001.3,East,90,0,0,77.5,0.0,,,0.0,0,0,n/a,2026-05-04T02:57:45Z
2026-05-04 05:03:48,10.8,11.4,1001.3,East,90,0,0,77.8,0.0,,,0.0,2,0,n/a,2026-05-04T03:03:48Z
2026-05-04 05:09:48,10.7,11.3,1001.3,East,90,0,0,77.7,0.0,,,0.0,2,0,n/a,2026-05-04T03:09:48Z
2026-05-04 05:12:48,10.6,11.3,1001.3,East,90,0,0,77.7,0.0,,,0.0,0,0,n/a,2026-05-04T03:12:48Z
2026-05-04 05:18:48,10.5,11.3,1001.3,East,90,0,0,77.7,0.0,,,0.0,2,0,n/a,2026-05-04T03:18:48Z
2026-05-04 05:24:48,10.4,11.2,1001.3,ESE,112,0,0,77.6,0.0,,,0.0,0,0,n/a,2026-05-04T03:24:48Z
2026-05-04 05:27:45,10.4,11.1,1001.3,ESE,112,0,0,77.8,0.0,,,0.0,2,0,n/a,2026-05-04T03:27:45Z
2026-05-04 05:33:48,10.5,11.1,1001.3,ESE,112,0,0,77.6,0.0,,,0.0,2,0,n/a,2026-05-04T03:33:48Z
2026-05-04 05:39:48,10.3,11.1,1001.3,ESE,112,0,0,77.6,0.0,,,0.0,2,0,n/a,2026-05-04T03:39:48Z
2026-05-04 05:42:48,10.3,11,1001.3,ESE,112,0,0,77.5,0.0,,,0.0,2,0,n/a,2026-05-04T03:42:48Z
2026-05-04 05:48:48,10.3,11.1,1001.3,East,90,0,0,77.8,0.0,,,0.0,4,0,n/a,2026-05-04T03:48:48Z
2026-05-04 05:54:49,10.3,11,1001.3,East,90,0,0,77.8,0.0,,,0.0,4,0,n/a,2026-05-04T03:54:49Z
2026-05-04 05:57:48,10.3,11,1001.3,East,90,0,0,77.9,0.0,,,0.0,6,0,n/a,2026-05-04T03:57:48Z
2026-05-04 06:03:45,10.3,11,1001.3,North,0,0,0,78.1,0.0,,,0.0,10,0,n/a,2026-05-04T04:03:45Z
2026-05-04 06:09:48,10.4,11.1,1001.3,East,90,0,0,78.1,0.0,,,0.0,14,0,n/a,2026-05-04T04:09:48Z
2026-05-04 06:12:48,10.5,11,1001.3,East,90,0,0,78.1,0.0,,,0.0,14,0,n/a,2026-05-04T04:12:48Z
2026-05-04 06:18:45,10.5,11.1,1001.3,East,90,0,0,78.4,0.0,,,0.0,24,0,n/a,2026-05-04T04:18:45Z
2026-05-04 06:24:48,10.6,11.2,1001.3,ESE,112,0,0,78.5,0.0,,,0.0,34,0,n/a,2026-05-04T04:24:48Z
2026-05-04 06:27:48,10.7,11.2,1001.3,ESE,112,0,0,78.7,0.0,,,0.0,38,0,n/a,2026-05-04T04:27:48Z
2026-05-04 06:33:49,10.8,11.3,1001.3,ESE,112,0,0,78.9,0.0,,,0.0,50,0,n/a,2026-05-04T04:33:49Z
2026-05-04 06:39:48,11,11.4,1001.3,ESE,112,0,0,79.1,0.0,,,0.0,64,0,n/a,2026-05-04T04:39:48Z
2026-05-04 06:42:48,11.2,11.5,1001.3,ESE,112,0,0,79.6,0.0,,,0.0,60,0,n/a,2026-05-04T04:42:48Z
2026-05-04 06:48:45,11.4,11.6,1001.3,East,90,0,0,80.1,0.0,,,0.0,56,0,n/a,2026-05-04T04:48:45Z
2026-05-04 06:54:48,11.5,11.8,1001.3,East,90,0,0,80.5,0.0,,,0.0,72,0,n/a,2026-05-04T04:54:48Z
2026-05-04 06:57:48,11.7,12,1001.5,East,90,0,0,81,0.0,,,0.0,58,0,n/a,2026-05-04T04:57:48Z
2026-05-04 07:03:48,11.6,12,1001.5,East,90,0,0,80.5,0.0,,,0.0,48,0,n/a,2026-05-04T05:03:48Z
2026-05-04 07:09:49,11.4,11.9,1001.5,East,90,0,0,79.9,0.0,,,0.0,52,0,n/a,2026-05-04T05:09:49Z
2026-05-04 07:12:48,11.4,11.9,1001.8,East,90,0,0,79.6,0.0,,,0.0,54,0,n/a,2026-05-04T05:12:48Z
2026-05-04 07:18:48,11.4,11.9,1001.8,East,90,0,0,79.5,0.0,,,0.0,60,0,n/a,2026-05-04T05:18:48Z
2026-05-04 07:24:45,11.5,11.9,1001.8,East,90,0,0,79.8,0.0,,,0.0,68,0,n/a,2026-05-04T05:24:45Z
2026-05-04 07:27:48,11.8,12,1001.8,East,90,0,0,80.4,0.0,,,0.0,90,0,n/a,2026-05-04T05:27:48Z
2026-05-04 07:33:49,12.2,12.3,1001.8,ESE,112,0,0,81,0.0,,,0.0,162,0,n/a,2026-05-04T05:33:49Z
2026-05-04 07:39:45,13.1,12.6,1001.8,East,90,0,0,81.4,0.0,,,0.0,110,0,n/a,2026-05-04T05:39:45Z
2026-05-04 07:42:48,13.6,12.8,1001.8,East,90,0,0,81,0.0,,,0.0,80,0,n/a,2026-05-04T05:42:48Z
2026-05-04 07:48:48,13.7,13.1,1001.5,East,90,0,0,80.9,0.0,,,0.0,80,0,n/a,2026-05-04T05:48:48Z
2026-05-04 07:54:48,14.2,13.2,1001.8,ESE,112,0,0,79.9,0.0,,,0.0,116,0,n/a,2026-05-04T05:54:48Z
2026-05-04 07:57:45,14.7,13.2,1001.8,ESE,112,0,0,77.8,0.0,,,0.0,90,0,n/a,2026-05-04T05:57:45Z
2026-05-04 08:03:49,15.1,12.9,1001.8,East,90,0,0,75,0.0,,,0.0,102,0,n/a,2026-05-04T06:03:49Z
2026-05-04 08:09:48,15.4,13.3,1001.8,North,0,0,0,74.4,0.0,,,0.0,140,0,n/a,2026-05-04T06:09:48Z
2026-05-04 08:12:48,15.5,12.8,1001.8,ESE,112,0,0,70.6,0.0,,,0.0,106,0,n/a,2026-05-04T06:12:48Z